sensor_id;sensor_type;location;lat;lon;timestamp;pressure;altitude;pressure_sealevel;temperature;humidity
19576;BME280;41589;51.196;7.074;2022-10-31T00:00:05;99452.25;;;17.51;54.90
19576;BME280;41589;51.196;7.074;2022-10-31T00:05:11;99449.91;;;17.49;55.10
19576;BME280;41589;51.196;7.074;2022-10-31T00:10:12;99443.38;;;17.43;55.20
19576;BME280;41589;51.196;7.074;2022-10-31T00:15:12;99453.84;;;17.31;55.41
19576;BME280;41589;51.196;7.074;2022-10-31T00:20:13;99444.44;;;17.20;55.64
19576;BME280;41589;51.196;7.074;2022-10-31T00:25:13;99443.22;;;17.06;55.84
19576;BME280;41589;51.196;7.074;2022-10-31T00:30:14;99445.44;;;16.96;55.90
19576;BME280;41589;51.196;7.074;2022-10-31T00:35:15;99446.94;;;16.92;56.28
19576;BME280;41589;51.196;7.074;2022-10-31T00:40:17;99439.44;;;16.89;55.87
19576;BME280;41589;51.196;7.074;2022-10-31T00:45:17;99433.75;;;16.89;56.21
19576;BME280;41589;51.196;7.074;2022-10-31T00:50:18;99433.09;;;16.79;56.41
19576;BME280;41589;51.196;7.074;2022-10-31T00:55:18;99435.94;;;16.79;56.68
19576;BME280;41589;51.196;7.074;2022-10-31T01:00:19;99445.16;;;16.94;56.71
19576;BME280;41589;51.196;7.074;2022-10-31T01:05:20;99464.56;;;16.96;56.41
19576;BME280;41589;51.196;7.074;2022-10-31T01:10:21;99459.38;;;16.94;56.88
19576;BME280;41589;51.196;7.074;2022-10-31T01:15:22;99470.84;;;17.00;56.82
19576;BME280;41589;51.196;7.074;2022-10-31T01:20:23;99455.97;;;17.11;56.83
19576;BME280;41589;51.196;7.074;2022-10-31T01:25:23;99487.09;;;17.20;56.69
19576;BME280;41589;51.196;7.074;2022-10-31T01:30:24;99459.94;;;17.19;56.87
19576;BME280;41589;51.196;7.074;2022-10-31T01:35:24;99449.22;;;17.34;56.70
19576;BME280;41589;51.196;7.074;2022-10-31T01:40:29;99440.03;;;17.19;56.76
19576;BME280;41589;51.196;7.074;2022-10-31T01:45:30;99432.97;;;17.14;56.55
19576;BME280;41589;51.196;7.074;2022-10-31T01:50:36;99432.34;;;17.04;56.65
19576;BME280;41589;51.196;7.074;2022-10-31T01:55:40;99411.03;;;16.94;57.25
19576;BME280;41589;51.196;7.074;2022-10-31T02:00:44;99407.88;;;16.87;57.59
19576;BME280;41589;51.196;7.074;2022-10-31T02:05:46;99407.88;;;16.87;57.67
19576;BME280;41589;51.196;7.074;2022-10-31T02:10:47;99411.41;;;16.82;57.70
19576;BME280;41589;51.196;7.074;2022-10-31T02:15:52;99408.72;;;16.72;57.82
19576;BME280;41589;51.196;7.074;2022-10-31T02:26:49;99417.03;;;16.56;58.47
19576;BME280;41589;51.196;7.074;2022-10-31T02:37:25;99408.97;;;16.54;57.91
19576;BME280;41589;51.196;7.074;2022-10-31T02:42:59;99425.69;;;16.46;57.98
19576;BME280;41589;51.196;7.074;2022-10-31T02:48:08;99432.50;;;16.34;57.90
19576;BME280;41589;51.196;7.074;2022-10-31T02:53:15;99434.75;;;16.30;58.21
19576;BME280;41589;51.196;7.074;2022-10-31T02:58:21;99429.47;;;16.23;58.22
19576;BME280;41589;51.196;7.074;2022-10-31T03:03:42;99429.53;;;16.08;58.67
19576;BME280;41589;51.196;7.074;2022-10-31T03:08:55;99422.50;;;16.04;59.48
19576;BME280;41589;51.196;7.074;2022-10-31T03:19:10;99417.84;;;16.21;60.59
19576;BME280;41589;51.196;7.074;2022-10-31T03:24:15;99446.91;;;16.31;59.99
19576;BME280;41589;51.196;7.074;2022-10-31T03:29:19;99444.41;;;16.18;60.11
19576;BME280;41589;51.196;7.074;2022-10-31T03:34:25;99440.56;;;16.21;60.30
19576;BME280;41589;51.196;7.074;2022-10-31T03:39:31;99446.72;;;16.34;60.32
19576;BME280;41589;51.196;7.074;2022-10-31T03:44:33;99427.94;;;16.42;60.09
19576;BME280;41589;51.196;7.074;2022-10-31T03:49:36;99421.28;;;16.45;60.71
19576;BME280;41589;51.196;7.074;2022-10-31T03:54:44;99432.84;;;16.62;61.17
19576;BME280;41589;51.196;7.074;2022-10-31T03:59:54;99431.28;;;16.61;61.48
19576;BME280;41589;51.196;7.074;2022-10-31T04:04:58;99423.81;;;16.64;61.49
19576;BME280;41589;51.196;7.074;2022-10-31T04:10:00;99415.19;;;16.73;61.44
19576;BME280;41589;51.196;7.074;2022-10-31T04:15:03;99405.75;;;16.82;61.35
19576;BME280;41589;51.196;7.074;2022-10-31T04:20:07;99419.44;;;16.83;61.23
19576;BME280;41589;51.196;7.074;2022-10-31T04:25:08;99422.44;;;16.74;61.12
19576;BME280;41589;51.196;7.074;2022-10-31T04:30:09;99404.28;;;16.66;61.25
19576;BME280;41589;51.196;7.074;2022-10-31T04:35:13;99401.31;;;16.60;61.66
19576;BME280;41589;51.196;7.074;2022-10-31T04:40:15;99395.78;;;16.51;61.80
19576;BME280;41589;51.196;7.074;2022-10-31T04:45:33;99404.66;;;16.38;61.84
19576;BME280;41589;51.196;7.074;2022-10-31T04:50:34;99393.16;;;16.27;61.90
19576;BME280;41589;51.196;7.074;2022-10-31T04:55:36;99407.25;;;16.22;61.78
19576;BME280;41589;51.196;7.074;2022-10-31T05:00:52;99398.31;;;16.08;62.37
19576;BME280;41589;51.196;7.074;2022-10-31T05:05:53;99394.47;;;16.11;62.03
19576;BME280;41589;51.196;7.074;2022-10-31T05:10:54;99395.19;;;16.06;62.18
19576;BME280;41589;51.196;7.074;2022-10-31T05:15:55;99372.94;;;15.84;62.63
19576;BME280;41589;51.196;7.074;2022-10-31T05:20:56;99368.16;;;15.76;63.25
19576;BME280;41589;51.196;7.074;2022-10-31T05:26:10;99357.00;;;15.72;63.45
19576;BME280;41589;51.196;7.074;2022-10-31T05:31:11;99369.50;;;15.80;63.68
19576;BME280;41589;51.196;7.074;2022-10-31T05:36:11;99368.81;;;15.85;63.77
19576;BME280;41589;51.196;7.074;2022-10-31T05:41:17;99365.84;;;15.95;63.89
19576;BME280;41589;51.196;7.074;2022-10-31T05:46:20;99376.72;;;15.96;63.68
19576;BME280;41589;51.196;7.074;2022-10-31T05:51:39;99374.81;;;16.08;63.86
19576;BME280;41589;51.196;7.074;2022-10-31T05:56:42;99362.44;;;16.11;63.65
19576;BME280;41589;51.196;7.074;2022-10-31T06:01:46;99353.94;;;16.11;63.70
19576;BME280;41589;51.196;7.074;2022-10-31T06:07:02;99350.44;;;16.01;63.66
19576;BME280;41589;51.196;7.074;2022-10-31T06:12:02;99345.09;;;15.88;64.10
19576;BME280;41589;51.196;7.074;2022-10-31T06:17:23;99356.75;;;15.91;64.51
19576;BME280;41589;51.196;7.074;2022-10-31T06:22:24;99363.97;;;15.92;64.58
19576;BME280;41589;51.196;7.074;2022-10-31T06:27:25;99368.19;;;15.96;64.50
19576;BME280;41589;51.196;7.074;2022-10-31T06:32:27;99368.19;;;15.96;64.73
19576;BME280;41589;51.196;7.074;2022-10-31T06:37:27;99363.78;;;15.95;64.64
19576;BME280;41589;51.196;7.074;2022-10-31T06:42:36;99362.00;;;15.98;64.77
19576;BME280;41589;51.196;7.074;2022-10-31T06:47:38;99366.97;;;16.03;64.67
19576;BME280;41589;51.196;7.074;2022-10-31T06:52:41;99365.50;;;16.07;64.43
19576;BME280;41589;51.196;7.074;2022-10-31T06:57:49;99381.47;;;16.05;65.03
19576;BME280;41589;51.196;7.074;2022-10-31T07:02:58;99371.56;;;16.15;65.13
19576;BME280;41589;51.196;7.074;2022-10-31T07:08:01;99358.97;;;16.22;64.97
19576;BME280;41589;51.196;7.074;2022-10-31T07:13:05;99369.16;;;16.28;65.22
19576;BME280;41589;51.196;7.074;2022-10-31T07:18:10;99371.84;;;16.37;64.80
19576;BME280;41589;51.196;7.074;2022-10-31T07:23:12;99363.88;;;16.41;64.90
19576;BME280;41589;51.196;7.074;2022-10-31T07:28:15;99376.31;;;16.44;64.74
19576;BME280;41589;51.196;7.074;2022-10-31T07:33:20;99368.91;;;16.52;64.56
19576;BME280;41589;51.196;7.074;2022-10-31T07:38:59;99369.16;;;16.49;64.32
19576;BME280;41589;51.196;7.074;2022-10-31T07:44:00;99374.69;;;16.58;64.51
19576;BME280;41589;51.196;7.074;2022-10-31T07:49:03;99376.81;;;16.63;64.44
19576;BME280;41589;51.196;7.074;2022-10-31T07:54:22;99380.75;;;16.65;64.44
19576;BME280;41589;51.196;7.074;2022-10-31T07:59:22;99393.09;;;16.83;64.20
19576;BME280;41589;51.196;7.074;2022-10-31T08:04:23;99386.53;;;16.97;64.10
19576;BME280;41589;51.196;7.074;2022-10-31T08:10:02;99383.47;;;17.00;63.65
19576;BME280;41589;51.196;7.074;2022-10-31T08:15:05;99384.00;;;17.04;63.76
19576;BME280;41589;51.196;7.074;2022-10-31T08:20:06;99380.28;;;17.19;63.77
19576;BME280;41589;51.196;7.074;2022-10-31T08:25:10;99382.50;;;17.35;63.36
19576;BME280;41589;51.196;7.074;2022-10-31T08:30:11;99384.63;;;17.40;63.14
19576;BME280;41589;51.196;7.074;2022-10-31T08:35:15;99376.44;;;17.53;62.95
19576;BME280;41589;51.196;7.074;2022-10-31T08:40:48;99362.84;;;17.63;62.83
19576;BME280;41589;51.196;7.074;2022-10-31T08:45:49;99372.78;;;17.79;62.55
19576;BME280;41589;51.196;7.074;2022-10-31T08:50:58;99363.84;;;17.92;62.30
19576;BME280;41589;51.196;7.074;2022-10-31T08:55:59;99355.88;;;18.07;61.80
19576;BME280;41589;51.196;7.074;2022-10-31T09:01:02;99357.56;;;18.30;61.45
19576;BME280;41589;51.196;7.074;2022-10-31T09:06:03;99360.97;;;18.40;60.82
19576;BME280;41589;51.196;7.074;2022-10-31T09:11:05;99350.16;;;18.50;60.93
19576;BME280;41589;51.196;7.074;2022-10-31T09:16:38;99343.97;;;18.57;60.51
19576;BME280;41589;51.196;7.074;2022-10-31T09:21:42;99340.38;;;18.73;60.14
19576;BME280;41589;51.196;7.074;2022-10-31T09:26:42;99340.16;;;18.77;59.93
19576;BME280;41589;51.196;7.074;2022-10-31T09:31:58;99325.69;;;18.97;59.57
19576;BME280;41589;51.196;7.074;2022-10-31T09:37:03;99328.28;;;19.06;59.23
19576;BME280;41589;51.196;7.074;2022-10-31T09:52:36;99310.16;;;19.48;58.19
19576;BME280;41589;51.196;7.074;2022-10-31T09:57:42;99314.53;;;19.66;57.03
19576;BME280;41589;51.196;7.074;2022-10-31T10:03:01;99315.28;;;19.83;57.58
19576;BME280;41589;51.196;7.074;2022-10-31T10:08:14;99307.50;;;19.89;56.06
19576;BME280;41589;51.196;7.074;2022-10-31T10:18:38;99287.97;;;20.05;54.90
19576;BME280;41589;51.196;7.074;2022-10-31T10:29:01;99285.50;;;20.42;54.74
19576;BME280;41589;51.196;7.074;2022-10-31T10:34:24;99269.28;;;20.62;54.28
19576;BME280;41589;51.196;7.074;2022-10-31T10:39:43;99262.50;;;20.65;53.08
19576;BME280;41589;51.196;7.074;2022-10-31T10:44:47;99254.72;;;20.60;52.74
19576;BME280;41589;51.196;7.074;2022-10-31T10:50:18;99244.19;;;20.79;52.72
19576;BME280;41589;51.196;7.074;2022-10-31T10:55:24;99228.03;;;20.93;51.76
19576;BME280;41589;51.196;7.074;2022-10-31T11:00:34;99218.38;;;20.96;50.13
19576;BME280;41589;51.196;7.074;2022-10-31T11:10:39;99218.22;;;21.13;49.69
19576;BME280;41589;51.196;7.074;2022-10-31T11:16:01;99211.09;;;21.25;49.90
19576;BME280;41589;51.196;7.074;2022-10-31T11:21:03;99194.28;;;21.40;48.73
19576;BME280;41589;51.196;7.074;2022-10-31T11:26:18;99189.28;;;21.46;48.35
19576;BME280;41589;51.196;7.074;2022-10-31T11:31:20;99190.97;;;21.60;48.35
19576;BME280;41589;51.196;7.074;2022-10-31T11:36:30;99199.00;;;21.62;47.78
19576;BME280;41589;51.196;7.074;2022-10-31T11:41:34;99190.97;;;21.60;47.33
19576;BME280;41589;51.196;7.074;2022-10-31T11:46:43;99181.72;;;21.92;46.99
19576;BME280;41589;51.196;7.074;2022-10-31T11:51:49;99181.66;;;22.16;46.34
19576;BME280;41589;51.196;7.074;2022-10-31T11:56:51;99178.78;;;22.16;45.31
19576;BME280;41589;51.196;7.074;2022-10-31T12:01:53;99161.91;;;22.13;45.30
19576;BME280;41589;51.196;7.074;2022-10-31T12:06:54;99154.31;;;22.15;44.79
19576;BME280;41589;51.196;7.074;2022-10-31T12:17:16;99134.78;;;22.14;44.86
19576;BME280;41589;51.196;7.074;2022-10-31T12:22:45;99131.38;;;21.97;44.06
19576;BME280;41589;51.196;7.074;2022-10-31T12:38:46;99099.34;;;21.79;44.59
19576;BME280;41589;51.196;7.074;2022-10-31T12:44:06;99083.16;;;21.82;44.64
19576;BME280;41589;51.196;7.074;2022-10-31T13:00:13;99065.03;;;21.93;44.14
19576;BME280;41589;51.196;7.074;2022-10-31T13:05:32;99055.97;;;21.88;43.35
19576;BME280;41589;51.196;7.074;2022-10-31T13:10:47;99035.06;;;21.75;43.72
19576;BME280;41589;51.196;7.074;2022-10-31T13:16:00;99021.75;;;21.77;44.02
19576;BME280;41589;51.196;7.074;2022-10-31T13:21:03;99015.09;;;21.69;43.63
19576;BME280;41589;51.196;7.074;2022-10-31T13:31:55;98993.66;;;21.57;44.22
19576;BME280;41589;51.196;7.074;2022-10-31T13:42:05;98977.16;;;21.82;44.26
19576;BME280;41589;51.196;7.074;2022-10-31T13:47:23;98974.28;;;21.82;43.72
19576;BME280;41589;51.196;7.074;2022-10-31T13:52:25;98976.81;;;21.85;44.33
19576;BME280;41589;51.196;7.074;2022-10-31T13:57:38;98977.19;;;21.95;43.80
19576;BME280;41589;51.196;7.074;2022-10-31T14:02:47;98966.66;;;22.03;43.93
19576;BME280;41589;51.196;7.074;2022-10-31T14:07:49;98958.38;;;22.00;44.13
19576;BME280;41589;51.196;7.074;2022-10-31T14:12:50;98953.50;;;21.95;44.25
19576;BME280;41589;51.196;7.074;2022-10-31T14:17:55;98937.75;;;21.88;43.87
19576;BME280;41589;51.196;7.074;2022-10-31T14:22:57;98925.06;;;21.65;44.33
19576;BME280;41589;51.196;7.074;2022-10-31T14:27:58;98933.41;;;21.44;44.69
19576;BME280;41589;51.196;7.074;2022-10-31T14:33:02;98920.13;;;21.46;44.81
19576;BME280;41589;51.196;7.074;2022-10-31T14:38:23;98903.25;;;21.43;44.73
19576;BME280;41589;51.196;7.074;2022-10-31T14:53:59;98872.97;;;21.15;44.67
19576;BME280;41589;51.196;7.074;2022-10-31T14:59:09;98867.31;;;21.10;44.82
19576;BME280;41589;51.196;7.074;2022-10-31T15:04:17;98880.84;;;21.09;44.44
19576;BME280;41589;51.196;7.074;2022-10-31T15:09:28;98873.03;;;21.10;44.33
19576;BME280;41589;51.196;7.074;2022-10-31T15:14:30;98857.34;;;20.97;44.03
19576;BME280;41589;51.196;7.074;2022-10-31T15:19:32;98843.66;;;21.09;43.80
19576;BME280;41589;51.196;7.074;2022-10-31T15:24:36;98828.34;;;21.07;43.67
19576;BME280;41589;51.196;7.074;2022-10-31T15:29:51;98837.00;;;21.01;43.28
19576;BME280;41589;51.196;7.074;2022-10-31T15:34:52;98837.16;;;20.90;43.21
19576;BME280;41589;51.196;7.074;2022-10-31T15:39:53;98828.34;;;20.88;42.88
19576;BME280;41589;51.196;7.074;2022-10-31T15:45:02;98817.22;;;20.84;43.01
19576;BME280;41589;51.196;7.074;2022-10-31T15:50:18;98816.03;;;20.74;42.98
19576;BME280;41589;51.196;7.074;2022-10-31T15:55:22;98806.06;;;20.62;43.11
19576;BME280;41589;51.196;7.074;2022-10-31T16:00:28;98790.59;;;20.52;43.04
19576;BME280;41589;51.196;7.074;2022-10-31T16:05:35;98789.19;;;20.39;43.16
19576;BME280;41589;51.196;7.074;2022-10-31T16:10:36;98789.59;;;20.30;43.19
19576;BME280;41589;51.196;7.074;2022-10-31T16:15:36;98791.78;;;20.18;43.33
19576;BME280;41589;51.196;7.074;2022-10-31T16:20:37;98783.34;;;20.07;43.96
19576;BME280;41589;51.196;7.074;2022-10-31T16:25:38;98787.78;;;20.03;43.78
19576;BME280;41589;51.196;7.074;2022-10-31T16:30:43;98771.78;;;19.94;44.16
19576;BME280;41589;51.196;7.074;2022-10-31T16:35:44;98775.22;;;19.87;44.29
19576;BME280;41589;51.196;7.074;2022-10-31T16:40:45;98790.53;;;19.89;44.08
19576;BME280;41589;51.196;7.074;2022-10-31T16:45:50;98794.28;;;19.79;44.40
19576;BME280;41589;51.196;7.074;2022-10-31T16:50:52;98780.50;;;19.77;44.45
19576;BME280;41589;51.196;7.074;2022-10-31T16:55:57;98783.56;;;19.60;44.73
19576;BME280;41589;51.196;7.074;2022-10-31T17:00:59;98783.31;;;19.58;44.99
19576;BME280;41589;51.196;7.074;2022-10-31T17:06:00;98787.94;;;19.61;44.73
19576;BME280;41589;51.196;7.074;2022-10-31T17:11:01;98789.31;;;19.55;45.18
19576;BME280;41589;51.196;7.074;2022-10-31T17:16:02;98786.75;;;19.51;45.42
19576;BME280;41589;51.196;7.074;2022-10-31T17:21:03;98791.16;;;19.52;45.25
19576;BME280;41589;51.196;7.074;2022-10-31T17:26:05;98784.91;;;19.54;45.17
19576;BME280;41589;51.196;7.074;2022-10-31T17:31:23;98778.22;;;19.46;45.28
19576;BME280;41589;51.196;7.074;2022-10-31T17:36:26;98782.66;;;19.47;45.15
19576;BME280;41589;51.196;7.074;2022-10-31T17:41:26;98791.38;;;19.54;44.74
19576;BME280;41589;51.196;7.074;2022-10-31T17:46:27;98788.53;;;19.54;44.65
19576;BME280;41589;51.196;7.074;2022-10-31T17:51:27;98787.22;;;19.55;44.49
19576;BME280;41589;51.196;7.074;2022-10-31T17:56:28;98769.09;;;19.53;44.59
19576;BME280;41589;51.196;7.074;2022-10-31T18:01:28;98761.09;;;19.46;44.65
19576;BME280;41589;51.196;7.074;2022-10-31T18:06:29;98771.56;;;19.38;44.96
19576;BME280;41589;51.196;7.074;2022-10-31T18:11:29;98772.91;;;19.31;44.78
19576;BME280;41589;51.196;7.074;2022-10-31T18:16:29;98769.59;;;19.21;45.22
19576;BME280;41589;51.196;7.074;2022-10-31T18:21:30;98760.28;;;19.15;45.44
19576;BME280;41589;51.196;7.074;2022-10-31T18:26:31;98756.94;;;19.17;45.33
19576;BME280;41589;51.196;7.074;2022-10-31T18:31:31;98747.44;;;19.03;45.76
19576;BME280;41589;51.196;7.074;2022-10-31T18:36:32;98757.53;;;19.04;45.72
19576;BME280;41589;51.196;7.074;2022-10-31T18:41:33;98753.44;;;18.99;45.93
19576;BME280;41589;51.196;7.074;2022-10-31T18:46:34;98748.06;;;18.90;46.03
19576;BME280;41589;51.196;7.074;2022-10-31T18:51:34;98742.06;;;18.94;45.98
19576;BME280;41589;51.196;7.074;2022-10-31T18:56:34;98731.47;;;18.89;46.11
19576;BME280;41589;51.196;7.074;2022-10-31T19:01:35;98729.41;;;18.89;46.19
19576;BME280;41589;51.196;7.074;2022-10-31T19:06:35;98738.25;;;18.86;46.14
19576;BME280;41589;51.196;7.074;2022-10-31T19:11:37;98711.59;;;18.78;46.20
19576;BME280;41589;51.196;7.074;2022-10-31T19:16:37;98708.00;;;18.71;46.50
19576;BME280;41589;51.196;7.074;2022-10-31T19:21:38;98708.25;;;18.73;46.49
19576;BME280;41589;51.196;7.074;2022-10-31T19:26:38;98709.28;;;18.76;46.53
19576;BME280;41589;51.196;7.074;2022-10-31T19:31:39;98702.31;;;18.71;46.34
19576;BME280;41589;51.196;7.074;2022-10-31T19:36:39;98699.50;;;18.66;46.66
19576;BME280;41589;51.196;7.074;2022-10-31T19:41:39;98707.47;;;18.73;46.46
19576;BME280;41589;51.196;7.074;2022-10-31T19:46:40;98702.88;;;18.64;46.60
19576;BME280;41589;51.196;7.074;2022-10-31T19:51:43;98696.44;;;18.58;46.84
19576;BME280;41589;51.196;7.074;2022-10-31T19:56:43;98705.00;;;18.58;46.93
19576;BME280;41589;51.196;7.074;2022-10-31T20:01:44;98700.66;;;18.46;47.10
19576;BME280;41589;51.196;7.074;2022-10-31T20:06:44;98693.13;;;18.49;47.20
19576;BME280;41589;51.196;7.074;2022-10-31T20:11:45;98687.16;;;18.52;47.11
19576;BME280;41589;51.196;7.074;2022-10-31T20:16:46;98679.38;;;18.53;47.03
19576;BME280;41589;51.196;7.074;2022-10-31T20:21:46;98681.41;;;18.58;46.84
19576;BME280;41589;51.196;7.074;2022-10-31T20:26:46;98673.66;;;18.53;46.78
19576;BME280;41589;51.196;7.074;2022-10-31T20:31:47;98670.09;;;18.46;46.84
19576;BME280;41589;51.196;7.074;2022-10-31T20:36:47;98668.50;;;18.51;46.92
19576;BME280;41589;51.196;7.074;2022-10-31T20:41:48;98666.41;;;18.52;46.88
19576;BME280;41589;51.196;7.074;2022-10-31T20:46:48;98663.84;;;18.54;47.09
19576;BME280;41589;51.196;7.074;2022-10-31T20:51:48;98647.50;;;18.54;47.11
19576;BME280;41589;51.196;7.074;2022-10-31T20:56:49;98652.47;;;18.48;47.13
19576;BME280;41589;51.196;7.074;2022-10-31T21:01:49;98647.53;;;18.49;47.38
19576;BME280;41589;51.196;7.074;2022-10-31T21:06:49;98642.63;;;18.49;47.38
19576;BME280;41589;51.196;7.074;2022-10-31T21:11:50;98634.84;;;18.50;47.50
19576;BME280;41589;51.196;7.074;2022-10-31T21:16:50;98633.81;;;18.47;47.48
19576;BME280;41589;51.196;7.074;2022-10-31T21:21:51;98640.59;;;18.44;47.58
19576;BME280;41589;51.196;7.074;2022-10-31T21:26:51;98631.22;;;18.49;47.58
19576;BME280;41589;51.196;7.074;2022-10-31T21:31:52;98621.09;;;18.54;47.62
19576;BME280;41589;51.196;7.074;2022-10-31T21:36:52;98625.56;;;18.43;47.72
19576;BME280;41589;51.196;7.074;2022-10-31T21:41:53;98608.94;;;18.42;47.68
19576;BME280;41589;51.196;7.074;2022-10-31T21:46:53;98612.09;;;18.44;47.77
19576;BME280;41589;51.196;7.074;2022-10-31T21:51:53;98601.22;;;18.42;47.92
19576;BME280;41589;51.196;7.074;2022-10-31T21:56:56;98599.16;;;18.37;47.94
19576;BME280;41589;51.196;7.074;2022-10-31T22:01:57;98596.53;;;18.39;47.99
19576;BME280;41589;51.196;7.074;2022-10-31T22:06:59;98585.91;;;18.40;47.90
19576;BME280;41589;51.196;7.074;2022-10-31T22:11:59;98587.78;;;18.32;47.92
19576;BME280;41589;51.196;7.074;2022-10-31T22:17:05;98592.47;;;18.29;48.53
19576;BME280;41589;51.196;7.074;2022-10-31T22:22:06;98582.69;;;18.25;48.35
19576;BME280;41589;51.196;7.074;2022-10-31T22:27:06;98567.44;;;18.22;48.32
19576;BME280;41589;51.196;7.074;2022-10-31T22:32:07;98564.13;;;18.12;48.53
19576;BME280;41589;51.196;7.074;2022-10-31T22:37:07;98556.59;;;18.15;48.55
19576;BME280;41589;51.196;7.074;2022-10-31T22:42:07;98551.13;;;18.23;48.55
19576;BME280;41589;51.196;7.074;2022-10-31T22:47:08;98554.47;;;18.21;48.61
19576;BME280;41589;51.196;7.074;2022-10-31T22:52:08;98558.91;;;18.16;48.76
19576;BME280;41589;51.196;7.074;2022-10-31T22:57:09;98549.06;;;18.17;48.81
19576;BME280;41589;51.196;7.074;2022-10-31T23:02:09;98552.16;;;18.19;48.80
19576;BME280;41589;51.196;7.074;2022-10-31T23:07:10;98554.47;;;18.21;48.64
19576;BME280;41589;51.196;7.074;2022-10-31T23:12:10;98545.66;;;18.25;48.75
19576;BME280;41589;51.196;7.074;2022-10-31T23:17:29;98545.31;;;18.34;48.59
19576;BME280;41589;51.196;7.074;2022-10-31T23:22:30;98543.72;;;18.38;48.75
19576;BME280;41589;51.196;7.074;2022-10-31T23:27:30;98546.81;;;18.40;48.72
19576;BME280;41589;51.196;7.074;2022-10-31T23:32:34;98552.94;;;18.56;48.65
19576;BME280;41589;51.196;7.074;2022-10-31T23:37:36;98538.16;;;18.57;48.55
19576;BME280;41589;51.196;7.074;2022-10-31T23:42:37;98549.47;;;18.63;48.62
19576;BME280;41589;51.196;7.074;2022-10-31T23:47:37;98551.53;;;18.68;48.54
19576;BME280;41589;51.196;7.074;2022-10-31T23:52:38;98554.50;;;18.81;48.73
19576;BME280;41589;51.196;7.074;2022-10-31T23:57:38;98554.22;;;18.85;49.16
